»·PEaware :: N750TP KSNA-KAVX

N750TP :: KSNA-KAVX

FLIGHT INFORMATION

Flight Status: Arrived
Operator: Privately registered:
United States
More flights under this callsign
Pilot: Jeff T. (26043)
Aircraft: SOCATA TBM-900
(TBM9)
More flights by this aircraft type
Origin: KSNA John Wayne-Orange Co
United States
Destination: KAVX Catalina
United States
More flights between these airports :: More routes between these airports
Route: SLI V21 SXC
File this flight plan on PilotEdge
Remarks: I-7
Altitude:
(Current/Filed)
4,000ft
Speed:
(Current/Filed)
160kts
Departed: 31-Jan-20 02:26 PM
Arrived: 31-Jan-20 02:59 PM
Distance/Time
Traveled:
32nm/0:33
Distance/Time
To Go:
Arrived

Flight Plot

Page will automatically refresh every two minutes.


Map Options




Map Legend


Flown Route
Filed Route
Departure Airport
Arrival Airport
Navaid (VOR, NDB)
Fix

Horizontal Profiles

Position Reports

Time Latitude Longitude Heading Altitude Ground
Speed
31-Jan-20 14:03 33.672637 -117.866160 258 46ft 0kts
31-Jan-20 14:04 33.672637 -117.866160 258 46ft 0kts
31-Jan-20 14:05 33.672637 -117.866160 258 46ft 0kts
31-Jan-20 14:06 33.672637 -117.866160 258 46ft 0kts
31-Jan-20 14:07 33.672637 -117.866160 258 46ft 0kts
31-Jan-20 14:08 33.672637 -117.866160 258 46ft 0kts
31-Jan-20 14:09 33.672637 -117.866160 258 46ft 0kts
31-Jan-20 14:10 33.672637 -117.866160 258 46ft 0kts
31-Jan-20 14:11 33.672637 -117.866160 258 46ft 0kts
31-Jan-20 14:12 33.672637 -117.866160 258 46ft 0kts
31-Jan-20 14:13 33.672637 -117.866160 258 46ft 0kts
31-Jan-20 14:14 33.672637 -117.866160 258 46ft 0kts
31-Jan-20 14:15 33.672637 -117.866160 258 46ft 0kts
31-Jan-20 14:16 33.672637 -117.866160 258 46ft 0kts
31-Jan-20 14:17 33.672637 -117.866160 258 46ft 0kts
31-Jan-20 14:18 33.672637 -117.866160 258 46ft 0kts
31-Jan-20 14:19 33.672715 -117.866997 294 48ft 13kts
31-Jan-20 14:20 33.674619 -117.866829 27 46ft 9kts
31-Jan-20 14:21 33.676826 -117.865421 24 43ft 13kts
31-Jan-20 14:22 33.679684 -117.863609 27 39ft 3kts
31-Jan-20 14:23 33.679985 -117.863665 299 39ft 0kts
31-Jan-20 14:24 33.680688 -117.865363 286 39ft 8kts
31-Jan-20 14:25 33.663026 -117.872832 182 493ft 101kts
31-Jan-20 14:26 33.620316 -117.879771 188 1073ft 153kts
31-Jan-20 14:27 33.580267 -117.883991 186 1833ft 139kts
31-Jan-20 14:28 33.542494 -117.886832 190 4012ft 146kts
31-Jan-20 14:29 33.489397 -117.893126 186 4158ft 210kts
31-Jan-20 14:30 33.437187 -117.898320 186 4192ft 174kts
31-Jan-20 14:31 33.392832 -117.911626 229 4219ft 166kts
31-Jan-20 14:32 33.398524 -117.961030 288 4148ft 161kts
31-Jan-20 14:33 33.406856 -118.012768 278 4244ft 167kts
31-Jan-20 14:34 33.416967 -118.067176 285 3302ft 201kts
31-Jan-20 14:35 33.416950 -118.118424 270 3828ft 165kts
31-Jan-20 14:36 33.417500 -118.171627 277 4140ft 158kts
31-Jan-20 14:37 33.421487 -118.223351 275 4394ft 162kts
31-Jan-20 14:38 33.415727 -118.277764 252 4452ft 172kts
31-Jan-20 14:39 33.397921 -118.330108 244 4673ft 170kts
31-Jan-20 14:40 33.374375 -118.378694 242 4815ft 168kts
31-Jan-20 14:41 33.363680 -118.433986 278 4281ft 185kts
31-Jan-20 14:42 33.391339 -118.475169 359 3134ft 178kts
31-Jan-20 14:43 33.433399 -118.461427 23 1954ft 133kts
31-Jan-20 14:44 33.468143 -118.453474 3 1677ft 122kts
31-Jan-20 14:45 33.502646 -118.459402 351 1478ft 124kts
31-Jan-20 14:46 33.534229 -118.466004 289 1283ft 133kts
31-Jan-20 14:47 33.555455 -118.496540 339 1490ft 120kts
31-Jan-20 14:48 33.587784 -118.508767 344 1631ft 121kts
31-Jan-20 14:49 33.610299 -118.483108 75 1698ft 127kts
31-Jan-20 14:50 33.594003 -118.445915 137 1779ft 136kts
31-Jan-20 14:51 33.560687 -118.423217 169 1711ft 146kts
31-Jan-20 14:52 33.523287 -118.406897 168 1787ft 136kts
31-Jan-20 14:54 33.485024 -118.410661 179 1834ft 136kts
31-Jan-20 14:55 33.447150 -118.416646 186 1916ft 135kts
31-Jan-20 14:56 33.413758 -118.433611 220 2083ft 130kts
31-Jan-20 14:57 33.399217 -118.457681 163 1252ft 95kts
31-Jan-20 14:58 33.394361 -118.428932 60 1621ft 106kts
31-Jan-20 14:59 33.405896 -118.414332 58 1532ft 12kts
31-Jan-20 15:00 33.404515 -118.414996 165 1543ft 4kts
31-Jan-20 15:01 33.403399 -118.415191 262 1546ft 3kts
31-Jan-20 15:02 33.403553 -118.415761 132 1549ft 0kts
31-Jan-20 15:03 33.403553 -118.415761 132 1549ft 0kts
31-Jan-20 15:04 33.403553 -118.415761 132 1549ft 0kts
31-Jan-20 15:05 33.403553 -118.415761 132 1549ft 0kts

Navigation Log

Ident Type
Flight plan parsing failed, navigation log unavailable